sensor_id;sensor_type;location;lat;lon;timestamp;P1;durP1;ratioP1;P2;durP2;ratioP2
4569;SDS011;2297;51.442;6.996;2023-03-16T00:01:42;6.93;;;2.47;;
4569;SDS011;2297;51.442;6.996;2023-03-16T00:04:09;5.60;;;2.78;;
4569;SDS011;2297;51.442;6.996;2023-03-16T00:06:35;4.97;;;2.30;;
4569;SDS011;2297;51.442;6.996;2023-03-16T00:09:02;3.67;;;2.00;;
4569;SDS011;2297;51.442;6.996;2023-03-16T00:11:29;7.18;;;2.22;;
4569;SDS011;2297;51.442;6.996;2023-03-16T00:13:55;7.68;;;2.67;;
4569;SDS011;2297;51.442;6.996;2023-03-16T00:16:24;3.90;;;2.30;;
4569;SDS011;2297;51.442;6.996;2023-03-16T00:18:51;5.30;;;2.30;;
4569;SDS011;2297;51.442;6.996;2023-03-16T00:21:17;3.83;;;2.40;;
4569;SDS011;2297;51.442;6.996;2023-03-16T00:23:44;3.17;;;2.17;;
4569;SDS011;2297;51.442;6.996;2023-03-16T00:26:10;3.58;;;2.33;;
4569;SDS011;2297;51.442;6.996;2023-03-16T00:28:38;6.93;;;3.13;;
4569;SDS011;2297;51.442;6.996;2023-03-16T00:31:07;4.28;;;2.30;;
4569;SDS011;2297;51.442;6.996;2023-03-16T00:33:37;7.30;;;2.85;;
4569;SDS011;2297;51.442;6.996;2023-03-16T00:36:04;8.13;;;2.50;;
4569;SDS011;2297;51.442;6.996;2023-03-16T00:38:34;3.50;;;2.20;;
4569;SDS011;2297;51.442;6.996;2023-03-16T00:41:02;5.65;;;2.47;;
4569;SDS011;2297;51.442;6.996;2023-03-16T00:43:31;4.88;;;2.60;;
4569;SDS011;2297;51.442;6.996;2023-03-16T00:46:04;5.13;;;2.50;;
4569;SDS011;2297;51.442;6.996;2023-03-16T00:48:32;5.40;;;3.42;;
4569;SDS011;2297;51.442;6.996;2023-03-16T00:51:01;4.13;;;2.60;;
4569;SDS011;2297;51.442;6.996;2023-03-16T00:53:31;7.10;;;2.67;;
4569;SDS011;2297;51.442;6.996;2023-03-16T00:55:57;5.93;;;2.47;;
4569;SDS011;2297;51.442;6.996;2023-03-16T00:58:27;4.30;;;2.50;;
4569;SDS011;2297;51.442;6.996;2023-03-16T01:00:53;4.65;;;2.33;;
4569;SDS011;2297;51.442;6.996;2023-03-16T01:03:21;4.43;;;2.90;;
4569;SDS011;2297;51.442;6.996;2023-03-16T01:05:48;5.28;;;2.70;;
4569;SDS011;2297;51.442;6.996;2023-03-16T01:08:16;5.97;;;2.97;;
4569;SDS011;2297;51.442;6.996;2023-03-16T01:10:43;4.30;;;2.50;;
4569;SDS011;2297;51.442;6.996;2023-03-16T01:13:10;6.28;;;2.55;;
4569;SDS011;2297;51.442;6.996;2023-03-16T01:15:37;5.15;;;2.60;;
4569;SDS011;2297;51.442;6.996;2023-03-16T01:18:04;3.35;;;2.60;;
4569;SDS011;2297;51.442;6.996;2023-03-16T01:20:32;4.00;;;2.50;;
4569;SDS011;2297;51.442;6.996;2023-03-16T01:22:58;5.45;;;2.40;;
4569;SDS011;2297;51.442;6.996;2023-03-16T01:25:27;5.03;;;2.20;;
4569;SDS011;2297;51.442;6.996;2023-03-16T01:27:54;4.68;;;2.50;;
4569;SDS011;2297;51.442;6.996;2023-03-16T01:30:20;6.45;;;2.58;;
4569;SDS011;2297;51.442;6.996;2023-03-16T01:32:47;7.38;;;2.50;;
4569;SDS011;2297;51.442;6.996;2023-03-16T01:35:14;5.47;;;2.40;;
4569;SDS011;2297;51.442;6.996;2023-03-16T01:37:40;4.80;;;2.30;;
4569;SDS011;2297;51.442;6.996;2023-03-16T01:40:08;5.40;;;2.20;;
4569;SDS011;2297;51.442;6.996;2023-03-16T01:42:48;5.25;;;2.40;;
4569;SDS011;2297;51.442;6.996;2023-03-16T01:48:28;6.47;;;2.30;;
4569;SDS011;2297;51.442;6.996;2023-03-16T01:51:01;3.90;;;2.20;;
4569;SDS011;2297;51.442;6.996;2023-03-16T01:53:30;4.63;;;2.47;;
4569;SDS011;2297;51.442;6.996;2023-03-16T01:55:57;5.00;;;2.40;;
4569;SDS011;2297;51.442;6.996;2023-03-16T01:58:27;5.00;;;2.55;;
4569;SDS011;2297;51.442;6.996;2023-03-16T02:00:54;5.13;;;2.58;;
4569;SDS011;2297;51.442;6.996;2023-03-16T02:03:22;3.28;;;2.10;;
4569;SDS011;2297;51.442;6.996;2023-03-16T02:05:51;4.47;;;2.00;;
4569;SDS011;2297;51.442;6.996;2023-03-16T02:08:23;4.07;;;2.20;;
4569;SDS011;2297;51.442;6.996;2023-03-16T02:10:52;5.43;;;2.13;;
4569;SDS011;2297;51.442;6.996;2023-03-16T02:13:21;4.45;;;2.42;;
4569;SDS011;2297;51.442;6.996;2023-03-16T02:15:50;4.63;;;2.13;;
4569;SDS011;2297;51.442;6.996;2023-03-16T02:18:18;3.13;;;2.10;;
4569;SDS011;2297;51.442;6.996;2023-03-16T02:20:47;6.35;;;2.67;;
4569;SDS011;2297;51.442;6.996;2023-03-16T02:23:18;4.28;;;2.10;;
4569;SDS011;2297;51.442;6.996;2023-03-16T02:25:46;4.97;;;2.50;;
4569;SDS011;2297;51.442;6.996;2023-03-16T02:28:21;3.85;;;2.35;;
4569;SDS011;2297;51.442;6.996;2023-03-16T02:30:54;2.47;;;1.47;;
4569;SDS011;2297;51.442;6.996;2023-03-16T02:33:21;4.35;;;2.47;;
4569;SDS011;2297;51.442;6.996;2023-03-16T02:35:49;6.07;;;2.15;;
4569;SDS011;2297;51.442;6.996;2023-03-16T02:38:16;3.53;;;2.20;;
4569;SDS011;2297;51.442;6.996;2023-03-16T02:40:42;5.55;;;2.50;;
4569;SDS011;2297;51.442;6.996;2023-03-16T02:43:18;8.82;;;2.90;;
4569;SDS011;2297;51.442;6.996;2023-03-16T02:45:49;6.97;;;2.10;;
4569;SDS011;2297;51.442;6.996;2023-03-16T02:48:20;3.50;;;2.40;;
4569;SDS011;2297;51.442;6.996;2023-03-16T02:50:52;4.13;;;2.20;;
4569;SDS011;2297;51.442;6.996;2023-03-16T02:53:20;7.43;;;3.17;;
4569;SDS011;2297;51.442;6.996;2023-03-16T02:55:47;5.30;;;2.20;;
4569;SDS011;2297;51.442;6.996;2023-03-16T02:58:14;5.38;;;2.60;;
4569;SDS011;2297;51.442;6.996;2023-03-16T03:00:41;20.05;;;8.90;;
4569;SDS011;2297;51.442;6.996;2023-03-16T03:03:09;5.15;;;2.85;;
4569;SDS011;2297;51.442;6.996;2023-03-16T03:05:37;7.47;;;2.83;;
4569;SDS011;2297;51.442;6.996;2023-03-16T03:08:04;4.13;;;2.30;;
4569;SDS011;2297;51.442;6.996;2023-03-16T03:10:31;3.33;;;2.30;;
4569;SDS011;2297;51.442;6.996;2023-03-16T03:12:58;3.67;;;2.15;;
4569;SDS011;2297;51.442;6.996;2023-03-16T03:15:25;3.67;;;2.10;;
4569;SDS011;2297;51.442;6.996;2023-03-16T03:17:51;4.70;;;2.20;;
4569;SDS011;2297;51.442;6.996;2023-03-16T03:20:18;4.35;;;2.10;;
4569;SDS011;2297;51.442;6.996;2023-03-16T03:22:49;3.70;;;2.50;;
4569;SDS011;2297;51.442;6.996;2023-03-16T03:25:18;5.95;;;2.60;;
4569;SDS011;2297;51.442;6.996;2023-03-16T03:27:47;3.97;;;2.30;;
4569;SDS011;2297;51.442;6.996;2023-03-16T03:30:16;3.88;;;2.38;;
4569;SDS011;2297;51.442;6.996;2023-03-16T03:32:44;4.15;;;2.20;;
4569;SDS011;2297;51.442;6.996;2023-03-16T03:35:11;3.70;;;2.40;;
4569;SDS011;2297;51.442;6.996;2023-03-16T03:37:39;3.95;;;2.22;;
4569;SDS011;2297;51.442;6.996;2023-03-16T03:40:08;3.78;;;2.20;;
4569;SDS011;2297;51.442;6.996;2023-03-16T03:42:37;3.35;;;2.28;;
4569;SDS011;2297;51.442;6.996;2023-03-16T03:45:05;5.10;;;2.22;;
4569;SDS011;2297;51.442;6.996;2023-03-16T03:47:33;4.15;;;2.58;;
4569;SDS011;2297;51.442;6.996;2023-03-16T03:49:59;5.63;;;3.03;;
4569;SDS011;2297;51.442;6.996;2023-03-16T03:52:26;3.65;;;2.20;;
4569;SDS011;2297;51.442;6.996;2023-03-16T03:54:54;4.95;;;1.88;;
4569;SDS011;2297;51.442;6.996;2023-03-16T03:57:22;5.18;;;2.47;;
4569;SDS011;2297;51.442;6.996;2023-03-16T03:59:48;4.72;;;2.40;;
4569;SDS011;2297;51.442;6.996;2023-03-16T04:02:15;4.28;;;2.25;;
4569;SDS011;2297;51.442;6.996;2023-03-16T04:04:42;4.10;;;2.50;;
4569;SDS011;2297;51.442;6.996;2023-03-16T04:07:09;6.30;;;2.65;;
4569;SDS011;2297;51.442;6.996;2023-03-16T04:09:36;4.00;;;2.80;;
4569;SDS011;2297;51.442;6.996;2023-03-16T04:12:03;5.05;;;2.67;;
4569;SDS011;2297;51.442;6.996;2023-03-16T04:14:32;3.90;;;2.10;;
4569;SDS011;2297;51.442;6.996;2023-03-16T04:16:59;6.03;;;2.90;;
4569;SDS011;2297;51.442;6.996;2023-03-16T04:19:26;7.05;;;2.42;;
4569;SDS011;2297;51.442;6.996;2023-03-16T04:21:52;3.15;;;2.25;;
4569;SDS011;2297;51.442;6.996;2023-03-16T04:24:19;6.80;;;2.47;;
4569;SDS011;2297;51.442;6.996;2023-03-16T04:26:46;4.35;;;2.13;;
4569;SDS011;2297;51.442;6.996;2023-03-16T04:29:13;3.55;;;2.17;;
4569;SDS011;2297;51.442;6.996;2023-03-16T04:31:43;4.85;;;2.50;;
4569;SDS011;2297;51.442;6.996;2023-03-16T04:34:10;5.93;;;2.70;;
4569;SDS011;2297;51.442;6.996;2023-03-16T04:36:37;4.70;;;2.70;;
4569;SDS011;2297;51.442;6.996;2023-03-16T04:39:05;6.32;;;2.53;;
4569;SDS011;2297;51.442;6.996;2023-03-16T04:41:32;5.13;;;2.33;;
4569;SDS011;2297;51.442;6.996;2023-03-16T04:43:59;5.82;;;2.60;;
4569;SDS011;2297;51.442;6.996;2023-03-16T04:46:26;5.43;;;2.78;;
4569;SDS011;2297;51.442;6.996;2023-03-16T04:48:54;6.85;;;2.50;;
4569;SDS011;2297;51.442;6.996;2023-03-16T04:51:22;5.68;;;2.58;;
4569;SDS011;2297;51.442;6.996;2023-03-16T04:53:49;6.75;;;3.03;;
4569;SDS011;2297;51.442;6.996;2023-03-16T04:56:16;5.38;;;2.97;;
4569;SDS011;2297;51.442;6.996;2023-03-16T04:58:43;5.00;;;2.55;;
4569;SDS011;2297;51.442;6.996;2023-03-16T05:01:10;5.22;;;2.63;;
4569;SDS011;2297;51.442;6.996;2023-03-16T05:03:37;9.98;;;3.53;;
4569;SDS011;2297;51.442;6.996;2023-03-16T05:06:05;4.28;;;2.67;;
4569;SDS011;2297;51.442;6.996;2023-03-16T05:08:32;5.22;;;2.92;;
4569;SDS011;2297;51.442;6.996;2023-03-16T05:10:59;4.38;;;2.90;;
4569;SDS011;2297;51.442;6.996;2023-03-16T05:13:26;3.17;;;2.60;;
4569;SDS011;2297;51.442;6.996;2023-03-16T05:15:53;6.10;;;3.53;;
4569;SDS011;2297;51.442;6.996;2023-03-16T05:18:20;5.75;;;3.03;;
4569;SDS011;2297;51.442;6.996;2023-03-16T05:20:48;4.93;;;2.97;;
4569;SDS011;2297;51.442;6.996;2023-03-16T05:23:17;4.97;;;2.92;;
4569;SDS011;2297;51.442;6.996;2023-03-16T05:25:44;8.50;;;3.20;;
4569;SDS011;2297;51.442;6.996;2023-03-16T05:28:12;6.32;;;3.50;;
4569;SDS011;2297;51.442;6.996;2023-03-16T05:30:39;6.38;;;3.45;;
4569;SDS011;2297;51.442;6.996;2023-03-16T05:33:07;6.63;;;3.08;;
4569;SDS011;2297;51.442;6.996;2023-03-16T05:35:34;5.00;;;3.17;;
4569;SDS011;2297;51.442;6.996;2023-03-16T05:38:02;4.93;;;3.20;;
4569;SDS011;2297;51.442;6.996;2023-03-16T05:40:30;8.48;;;5.13;;
4569;SDS011;2297;51.442;6.996;2023-03-16T05:42:57;6.72;;;4.00;;
4569;SDS011;2297;51.442;6.996;2023-03-16T05:45:25;5.85;;;3.28;;
4569;SDS011;2297;51.442;6.996;2023-03-16T05:47:53;7.78;;;3.92;;
4569;SDS011;2297;51.442;6.996;2023-03-16T05:50:20;4.65;;;3.25;;
4569;SDS011;2297;51.442;6.996;2023-03-16T05:52:47;10.77;;;4.07;;
4569;SDS011;2297;51.442;6.996;2023-03-16T05:55:16;12.00;;;4.13;;
4569;SDS011;2297;51.442;6.996;2023-03-16T05:57:45;6.63;;;3.40;;
4569;SDS011;2297;51.442;6.996;2023-03-16T06:00:12;8.73;;;3.60;;
4569;SDS011;2297;51.442;6.996;2023-03-16T06:02:40;8.02;;;3.78;;
4569;SDS011;2297;51.442;6.996;2023-03-16T06:05:08;5.85;;;3.60;;
4569;SDS011;2297;51.442;6.996;2023-03-16T06:07:35;6.15;;;4.03;;
4569;SDS011;2297;51.442;6.996;2023-03-16T06:10:02;5.63;;;3.45;;
4569;SDS011;2297;51.442;6.996;2023-03-16T06:12:30;5.40;;;3.53;;
4569;SDS011;2297;51.442;6.996;2023-03-16T06:14:59;6.05;;;3.40;;
4569;SDS011;2297;51.442;6.996;2023-03-16T06:17:27;5.88;;;3.70;;
4569;SDS011;2297;51.442;6.996;2023-03-16T06:19:54;6.07;;;3.58;;
4569;SDS011;2297;51.442;6.996;2023-03-16T06:22:20;4.82;;;3.30;;
4569;SDS011;2297;51.442;6.996;2023-03-16T06:24:49;7.60;;;4.10;;
4569;SDS011;2297;51.442;6.996;2023-03-16T06:27:15;7.15;;;3.33;;
4569;SDS011;2297;51.442;6.996;2023-03-16T06:29:44;8.13;;;3.42;;
4569;SDS011;2297;51.442;6.996;2023-03-16T06:32:13;5.00;;;3.63;;
4569;SDS011;2297;51.442;6.996;2023-03-16T06:34:40;5.20;;;3.45;;
4569;SDS011;2297;51.442;6.996;2023-03-16T06:37:07;7.10;;;3.50;;
4569;SDS011;2297;51.442;6.996;2023-03-16T06:39:34;6.05;;;2.80;;
4569;SDS011;2297;51.442;6.996;2023-03-16T06:42:00;6.53;;;3.53;;
4569;SDS011;2297;51.442;6.996;2023-03-16T06:44:28;7.22;;;3.22;;
4569;SDS011;2297;51.442;6.996;2023-03-16T06:46:55;6.18;;;3.08;;
4569;SDS011;2297;51.442;6.996;2023-03-16T06:49:23;9.05;;;3.55;;
4569;SDS011;2297;51.442;6.996;2023-03-16T06:51:50;6.10;;;3.60;;
4569;SDS011;2297;51.442;6.996;2023-03-16T06:54:16;5.43;;;3.30;;
4569;SDS011;2297;51.442;6.996;2023-03-16T06:56:43;9.27;;;4.03;;
4569;SDS011;2297;51.442;6.996;2023-03-16T06:59:10;6.82;;;3.63;;
4569;SDS011;2297;51.442;6.996;2023-03-16T07:01:36;7.05;;;3.42;;
4569;SDS011;2297;51.442;6.996;2023-03-16T07:04:03;7.22;;;3.45;;
4569;SDS011;2297;51.442;6.996;2023-03-16T07:06:31;5.05;;;3.05;;
4569;SDS011;2297;51.442;6.996;2023-03-16T07:08:58;4.85;;;3.10;;
4569;SDS011;2297;51.442;6.996;2023-03-16T07:11:25;8.23;;;4.15;;
4569;SDS011;2297;51.442;6.996;2023-03-16T07:13:52;8.63;;;3.92;;
4569;SDS011;2297;51.442;6.996;2023-03-16T07:16:18;5.53;;;3.15;;
4569;SDS011;2297;51.442;6.996;2023-03-16T07:18:46;5.72;;;3.17;;
4569;SDS011;2297;51.442;6.996;2023-03-16T07:21:12;5.75;;;3.13;;
4569;SDS011;2297;51.442;6.996;2023-03-16T07:23:40;6.50;;;3.20;;
4569;SDS011;2297;51.442;6.996;2023-03-16T07:26:07;7.03;;;3.03;;
4569;SDS011;2297;51.442;6.996;2023-03-16T07:28:36;4.80;;;2.90;;
4569;SDS011;2297;51.442;6.996;2023-03-16T07:31:02;7.65;;;3.83;;
4569;SDS011;2297;51.442;6.996;2023-03-16T07:33:29;7.25;;;3.33;;
4569;SDS011;2297;51.442;6.996;2023-03-16T07:35:56;6.22;;;3.10;;
4569;SDS011;2297;51.442;6.996;2023-03-16T07:38:22;11.15;;;5.20;;
4569;SDS011;2297;51.442;6.996;2023-03-16T07:40:50;7.00;;;3.38;;
4569;SDS011;2297;51.442;6.996;2023-03-16T07:43:17;4.47;;;2.92;;
4569;SDS011;2297;51.442;6.996;2023-03-16T07:45:46;4.70;;;3.00;;
4569;SDS011;2297;51.442;6.996;2023-03-16T07:48:13;4.43;;;2.97;;
4569;SDS011;2297;51.442;6.996;2023-03-16T07:50:39;9.23;;;3.15;;
4569;SDS011;2297;51.442;6.996;2023-03-16T07:53:06;5.43;;;2.80;;
4569;SDS011;2297;51.442;6.996;2023-03-16T07:55:33;6.70;;;3.38;;
4569;SDS011;2297;51.442;6.996;2023-03-16T07:58:02;5.57;;;3.30;;
4569;SDS011;2297;51.442;6.996;2023-03-16T08:00:30;5.65;;;3.33;;
4569;SDS011;2297;51.442;6.996;2023-03-16T08:02:57;6.53;;;3.47;;
4569;SDS011;2297;51.442;6.996;2023-03-16T08:05:24;4.07;;;2.58;;
4569;SDS011;2297;51.442;6.996;2023-03-16T08:07:50;9.02;;;3.35;;
4569;SDS011;2297;51.442;6.996;2023-03-16T08:10:17;5.03;;;3.00;;
4569;SDS011;2297;51.442;6.996;2023-03-16T08:12:45;5.25;;;3.03;;
4569;SDS011;2297;51.442;6.996;2023-03-16T08:15:13;4.60;;;3.13;;
4569;SDS011;2297;51.442;6.996;2023-03-16T08:17:39;5.70;;;3.80;;
4569;SDS011;2297;51.442;6.996;2023-03-16T08:20:07;4.88;;;3.17;;
4569;SDS011;2297;51.442;6.996;2023-03-16T08:22:39;4.43;;;2.83;;
4569;SDS011;2297;51.442;6.996;2023-03-16T08:25:07;5.10;;;2.90;;
4569;SDS011;2297;51.442;6.996;2023-03-16T08:27:35;4.95;;;2.92;;
4569;SDS011;2297;51.442;6.996;2023-03-16T08:30:03;5.55;;;3.35;;
4569;SDS011;2297;51.442;6.996;2023-03-16T08:32:32;6.22;;;3.75;;
4569;SDS011;2297;51.442;6.996;2023-03-16T08:34:59;4.90;;;3.10;;
4569;SDS011;2297;51.442;6.996;2023-03-16T08:37:27;6.53;;;3.25;;
4569;SDS011;2297;51.442;6.996;2023-03-16T08:39:53;5.75;;;3.40;;
4569;SDS011;2297;51.442;6.996;2023-03-16T08:42:20;8.05;;;3.35;;
4569;SDS011;2297;51.442;6.996;2023-03-16T08:44:47;6.90;;;3.42;;
4569;SDS011;2297;51.442;6.996;2023-03-16T08:47:15;10.95;;;3.65;;
4569;SDS011;2297;51.442;6.996;2023-03-16T08:49:43;5.60;;;3.20;;
4569;SDS011;2297;51.442;6.996;2023-03-16T08:52:10;4.80;;;3.78;;
4569;SDS011;2297;51.442;6.996;2023-03-16T08:54:36;4.82;;;3.25;;
4569;SDS011;2297;51.442;6.996;2023-03-16T08:57:03;4.55;;;3.15;;
4569;SDS011;2297;51.442;6.996;2023-03-16T08:59:30;5.55;;;3.45;;
4569;SDS011;2297;51.442;6.996;2023-03-16T09:01:57;5.45;;;3.30;;
4569;SDS011;2297;51.442;6.996;2023-03-16T09:04:24;5.68;;;3.55;;
4569;SDS011;2297;51.442;6.996;2023-03-16T09:06:53;5.78;;;3.53;;
4569;SDS011;2297;51.442;6.996;2023-03-16T09:09:20;6.65;;;3.40;;
4569;SDS011;2297;51.442;6.996;2023-03-16T09:11:47;5.95;;;3.75;;
4569;SDS011;2297;51.442;6.996;2023-03-16T09:14:15;7.18;;;3.78;;
4569;SDS011;2297;51.442;6.996;2023-03-16T09:16:42;4.93;;;3.28;;
4569;SDS011;2297;51.442;6.996;2023-03-16T09:19:10;5.47;;;3.53;;
4569;SDS011;2297;51.442;6.996;2023-03-16T09:21:37;6.88;;;3.55;;
4569;SDS011;2297;51.442;6.996;2023-03-16T09:24:05;5.60;;;3.70;;
4569;SDS011;2297;51.442;6.996;2023-03-16T09:26:33;5.93;;;3.85;;
4569;SDS011;2297;51.442;6.996;2023-03-16T09:29:00;6.40;;;3.60;;
4569;SDS011;2297;51.442;6.996;2023-03-16T09:31:27;9.18;;;3.88;;
4569;SDS011;2297;51.442;6.996;2023-03-16T09:33:53;6.05;;;3.78;;
4569;SDS011;2297;51.442;6.996;2023-03-16T09:36:20;5.72;;;3.47;;
4569;SDS011;2297;51.442;6.996;2023-03-16T09:38:47;6.65;;;3.13;;
4569;SDS011;2297;51.442;6.996;2023-03-16T09:41:20;6.97;;;3.60;;
4569;SDS011;2297;51.442;6.996;2023-03-16T09:44:01;8.23;;;4.18;;
4569;SDS011;2297;51.442;6.996;2023-03-16T09:46:35;5.30;;;3.33;;
4569;SDS011;2297;51.442;6.996;2023-03-16T09:49:07;7.93;;;3.83;;
4569;SDS011;2297;51.442;6.996;2023-03-16T09:51:35;10.23;;;4.00;;
4569;SDS011;2297;51.442;6.996;2023-03-16T09:54:09;6.78;;;3.80;;
4569;SDS011;2297;51.442;6.996;2023-03-16T09:59:42;7.63;;;4.18;;
4569;SDS011;2297;51.442;6.996;2023-03-16T10:02:16;10.98;;;4.15;;
4569;SDS011;2297;51.442;6.996;2023-03-16T10:05:05;6.53;;;3.50;;
4569;SDS011;2297;51.442;6.996;2023-03-16T10:07:36;6.68;;;4.15;;
4569;SDS011;2297;51.442;6.996;2023-03-16T10:10:25;8.60;;;4.35;;
4569;SDS011;2297;51.442;6.996;2023-03-16T10:13:10;5.50;;;3.85;;
4569;SDS011;2297;51.442;6.996;2023-03-16T10:15:43;6.35;;;3.72;;
4569;SDS011;2297;51.442;6.996;2023-03-16T10:18:13;8.55;;;3.80;;
4569;SDS011;2297;51.442;6.996;2023-03-16T10:20:45;6.63;;;4.15;;
4569;SDS011;2297;51.442;6.996;2023-03-16T10:23:13;7.78;;;4.07;;
4569;SDS011;2297;51.442;6.996;2023-03-16T10:25:45;8.93;;;3.80;;
4569;SDS011;2297;51.442;6.996;2023-03-16T10:28:15;9.20;;;4.15;;
4569;SDS011;2297;51.442;6.996;2023-03-16T10:30:44;6.28;;;3.70;;
4569;SDS011;2297;51.442;6.996;2023-03-16T10:33:16;7.07;;;4.18;;
4569;SDS011;2297;51.442;6.996;2023-03-16T10:35:47;6.47;;;3.72;;
4569;SDS011;2297;51.442;6.996;2023-03-16T10:38:26;6.43;;;3.70;;
4569;SDS011;2297;51.442;6.996;2023-03-16T10:40:57;5.13;;;3.50;;
4569;SDS011;2297;51.442;6.996;2023-03-16T10:43:26;6.18;;;3.83;;
4569;SDS011;2297;51.442;6.996;2023-03-16T10:45:57;6.70;;;3.15;;
4569;SDS011;2297;51.442;6.996;2023-03-16T10:48:24;7.43;;;3.45;;
4569;SDS011;2297;51.442;6.996;2023-03-16T10:50:53;7.85;;;4.38;;
4569;SDS011;2297;51.442;6.996;2023-03-16T10:53:24;8.05;;;3.35;;
4569;SDS011;2297;51.442;6.996;2023-03-16T10:55:56;9.57;;;3.60;;
4569;SDS011;2297;51.442;6.996;2023-03-16T10:58:24;10.13;;;3.92;;
4569;SDS011;2297;51.442;6.996;2023-03-16T11:00:56;8.82;;;4.20;;
4569;SDS011;2297;51.442;6.996;2023-03-16T11:03:25;6.10;;;3.65;;
4569;SDS011;2297;51.442;6.996;2023-03-16T11:05:56;8.20;;;3.40;;
4569;SDS011;2297;51.442;6.996;2023-03-16T11:08:24;6.93;;;3.75;;
4569;SDS011;2297;51.442;6.996;2023-03-16T11:10:54;5.60;;;3.25;;
4569;SDS011;2297;51.442;6.996;2023-03-16T11:13:23;7.97;;;3.35;;
4569;SDS011;2297;51.442;6.996;2023-03-16T11:15:59;7.28;;;3.20;;
4569;SDS011;2297;51.442;6.996;2023-03-16T11:18:30;5.57;;;3.08;;
4569;SDS011;2297;51.442;6.996;2023-03-16T11:21:01;6.53;;;2.85;;
4569;SDS011;2297;51.442;6.996;2023-03-16T11:23:38;4.90;;;2.83;;
4569;SDS011;2297;51.442;6.996;2023-03-16T11:26:14;5.90;;;2.70;;
4569;SDS011;2297;51.442;6.996;2023-03-16T11:28:46;5.93;;;2.92;;
4569;SDS011;2297;51.442;6.996;2023-03-16T11:31:24;4.70;;;2.40;;
4569;SDS011;2297;51.442;6.996;2023-03-16T11:34:04;6.28;;;2.42;;
4569;SDS011;2297;51.442;6.996;2023-03-16T11:36:41;6.72;;;2.85;;
4569;SDS011;2297;51.442;6.996;2023-03-16T11:39:14;3.72;;;2.38;;
4569;SDS011;2297;51.442;6.996;2023-03-16T11:41:57;5.32;;;2.50;;
4569;SDS011;2297;51.442;6.996;2023-03-16T11:47:04;7.15;;;2.60;;
4569;SDS011;2297;51.442;6.996;2023-03-16T11:49:52;5.20;;;2.60;;
4569;SDS011;2297;51.442;6.996;2023-03-16T11:52:26;5.05;;;2.63;;
4569;SDS011;2297;51.442;6.996;2023-03-16T11:55:04;5.55;;;2.58;;
4569;SDS011;2297;51.442;6.996;2023-03-16T11:57:46;3.30;;;2.17;;
4569;SDS011;2297;51.442;6.996;2023-03-16T12:00:26;5.93;;;2.58;;
4569;SDS011;2297;51.442;6.996;2023-03-16T12:06:05;3.30;;;2.25;;
4569;SDS011;2297;51.442;6.996;2023-03-16T12:08:58;5.00;;;2.40;;
4569;SDS011;2297;51.442;6.996;2023-03-16T12:11:33;4.93;;;2.60;;
4569;SDS011;2297;51.442;6.996;2023-03-16T12:16:41;3.70;;;2.33;;
4569;SDS011;2297;51.442;6.996;2023-03-16T12:19:14;3.00;;;2.20;;
4569;SDS011;2297;51.442;6.996;2023-03-16T12:21:47;3.22;;;2.47;;
4569;SDS011;2297;51.442;6.996;2023-03-16T12:24:24;6.72;;;2.60;;
4569;SDS011;2297;51.442;6.996;2023-03-16T12:26:53;3.85;;;2.40;;
4569;SDS011;2297;51.442;6.996;2023-03-16T12:29:26;6.43;;;2.42;;
4569;SDS011;2297;51.442;6.996;2023-03-16T12:32:00;6.53;;;2.67;;
4569;SDS011;2297;51.442;6.996;2023-03-16T12:34:35;6.20;;;2.67;;
4569;SDS011;2297;51.442;6.996;2023-03-16T12:37:08;3.88;;;2.30;;
4569;SDS011;2297;51.442;6.996;2023-03-16T12:39:59;3.88;;;2.53;;
4569;SDS011;2297;51.442;6.996;2023-03-16T12:42:46;5.70;;;3.00;;
4569;SDS011;2297;51.442;6.996;2023-03-16T12:45:32;4.20;;;2.42;;
4569;SDS011;2297;51.442;6.996;2023-03-16T12:48:08;4.65;;;2.38;;
4569;SDS011;2297;51.442;6.996;2023-03-16T12:50:50;3.92;;;2.65;;
4569;SDS011;2297;51.442;6.996;2023-03-16T12:53:28;5.22;;;2.25;;
4569;SDS011;2297;51.442;6.996;2023-03-16T12:56:07;4.57;;;2.47;;
4569;SDS011;2297;51.442;6.996;2023-03-16T12:58:38;6.88;;;2.53;;
4569;SDS011;2297;51.442;6.996;2023-03-16T13:01:08;6.95;;;2.75;;
4569;SDS011;2297;51.442;6.996;2023-03-16T13:03:37;3.50;;;2.40;;
4569;SDS011;2297;51.442;6.996;2023-03-16T13:06:06;5.40;;;2.58;;
4569;SDS011;2297;51.442;6.996;2023-03-16T13:08:43;5.10;;;2.30;;
4569;SDS011;2297;51.442;6.996;2023-03-16T13:11:15;4.80;;;2.30;;
4569;SDS011;2297;51.442;6.996;2023-03-16T13:13:52;3.38;;;2.15;;
4569;SDS011;2297;51.442;6.996;2023-03-16T13:16:33;3.65;;;2.30;;
4569;SDS011;2297;51.442;6.996;2023-03-16T13:19:15;5.05;;;2.67;;
4569;SDS011;2297;51.442;6.996;2023-03-16T13:21:58;3.35;;;2.00;;
4569;SDS011;2297;51.442;6.996;2023-03-16T13:24:34;5.97;;;2.50;;
4569;SDS011;2297;51.442;6.996;2023-03-16T13:27:04;4.80;;;2.33;;
4569;SDS011;2297;51.442;6.996;2023-03-16T13:29:40;5.47;;;2.47;;
4569;SDS011;2297;51.442;6.996;2023-03-16T13:32:17;8.02;;;3.50;;
4569;SDS011;2297;51.442;6.996;2023-03-16T13:34:45;4.63;;;2.85;;
4569;SDS011;2297;51.442;6.996;2023-03-16T13:37:16;4.63;;;2.65;;
4569;SDS011;2297;51.442;6.996;2023-03-16T13:39:50;7.13;;;2.60;;
4569;SDS011;2297;51.442;6.996;2023-03-16T13:42:19;9.20;;;2.90;;
4569;SDS011;2297;51.442;6.996;2023-03-16T13:44:47;6.72;;;2.65;;
4569;SDS011;2297;51.442;6.996;2023-03-16T13:47:17;4.38;;;2.22;;
4569;SDS011;2297;51.442;6.996;2023-03-16T13:49:44;5.90;;;2.42;;
4569;SDS011;2297;51.442;6.996;2023-03-16T13:52:13;3.25;;;2.30;;
4569;SDS011;2297;51.442;6.996;2023-03-16T13:54:47;4.20;;;2.05;;
4569;SDS011;2297;51.442;6.996;2023-03-16T13:57:15;4.38;;;2.20;;
4569;SDS011;2297;51.442;6.996;2023-03-16T13:59:44;4.63;;;2.40;;
4569;SDS011;2297;51.442;6.996;2023-03-16T14:02:15;4.35;;;2.28;;
4569;SDS011;2297;51.442;6.996;2023-03-16T14:04:43;3.45;;;2.25;;
4569;SDS011;2297;51.442;6.996;2023-03-16T14:07:14;5.72;;;2.42;;
4569;SDS011;2297;51.442;6.996;2023-03-16T14:09:44;4.80;;;2.72;;
4569;SDS011;2297;51.442;6.996;2023-03-16T14:12:14;5.45;;;2.05;;
4569;SDS011;2297;51.442;6.996;2023-03-16T14:14:45;3.85;;;2.38;;
4569;SDS011;2297;51.442;6.996;2023-03-16T14:17:15;4.45;;;2.50;;
4569;SDS011;2297;51.442;6.996;2023-03-16T14:19:44;5.97;;;2.50;;
4569;SDS011;2297;51.442;6.996;2023-03-16T14:22:14;12.70;;;2.65;;
4569;SDS011;2297;51.442;6.996;2023-03-16T14:24:44;6.10;;;2.65;;
4569;SDS011;2297;51.442;6.996;2023-03-16T14:27:19;7.95;;;2.70;;
4569;SDS011;2297;51.442;6.996;2023-03-16T14:29:52;5.63;;;2.60;;
4569;SDS011;2297;51.442;6.996;2023-03-16T14:32:22;4.40;;;2.30;;
4569;SDS011;2297;51.442;6.996;2023-03-16T14:34:52;7.68;;;2.40;;
4569;SDS011;2297;51.442;6.996;2023-03-16T14:37:32;2.50;;;1.90;;
4569;SDS011;2297;51.442;6.996;2023-03-16T14:40:03;2.78;;;1.98;;
4569;SDS011;2297;51.442;6.996;2023-03-16T14:42:32;7.03;;;2.15;;
4569;SDS011;2297;51.442;6.996;2023-03-16T14:45:00;2.42;;;1.70;;
4569;SDS011;2297;51.442;6.996;2023-03-16T14:47:32;4.35;;;2.58;;
4569;SDS011;2297;51.442;6.996;2023-03-16T14:50:06;2.90;;;1.90;;
4569;SDS011;2297;51.442;6.996;2023-03-16T14:52:34;4.18;;;2.22;;
4569;SDS011;2297;51.442;6.996;2023-03-16T14:55:08;7.30;;;2.00;;
4569;SDS011;2297;51.442;6.996;2023-03-16T14:57:38;4.65;;;1.83;;
4569;SDS011;2297;51.442;6.996;2023-03-16T15:00:06;6.57;;;2.33;;
4569;SDS011;2297;51.442;6.996;2023-03-16T15:05:50;2.30;;;1.93;;
4569;SDS011;2297;51.442;6.996;2023-03-16T15:08:18;4.32;;;2.17;;
4569;SDS011;2297;51.442;6.996;2023-03-16T15:10:51;3.88;;;2.25;;
4569;SDS011;2297;51.442;6.996;2023-03-16T15:13:20;5.65;;;2.40;;
4569;SDS011;2297;51.442;6.996;2023-03-16T15:16:16;5.80;;;1.80;;
4569;SDS011;2297;51.442;6.996;2023-03-16T15:18:44;2.33;;;1.58;;
4569;SDS011;2297;51.442;6.996;2023-03-16T15:21:12;4.88;;;2.22;;
4569;SDS011;2297;51.442;6.996;2023-03-16T15:23:41;4.03;;;1.70;;
4569;SDS011;2297;51.442;6.996;2023-03-16T15:28:51;6.60;;;1.85;;
4569;SDS011;2297;51.442;6.996;2023-03-16T15:31:18;3.20;;;1.60;;
4569;SDS011;2297;51.442;6.996;2023-03-16T15:33:45;3.42;;;2.00;;
4569;SDS011;2297;51.442;6.996;2023-03-16T15:36:12;4.90;;;1.85;;
4569;SDS011;2297;51.442;6.996;2023-03-16T15:38:42;1.95;;;1.30;;
4569;SDS011;2297;51.442;6.996;2023-03-16T15:41:11;2.55;;;1.48;;
4569;SDS011;2297;51.442;6.996;2023-03-16T15:43:38;4.22;;;1.65;;
4569;SDS011;2297;51.442;6.996;2023-03-16T15:46:06;3.08;;;1.60;;
4569;SDS011;2297;51.442;6.996;2023-03-16T15:48:35;4.00;;;1.50;;
4569;SDS011;2297;51.442;6.996;2023-03-16T15:51:03;1.70;;;1.60;;